• Join FlightAware (Why Join?)
  • Login
  • US Flag 
09:16PM EDT


 

Airport Tracker/Info


-or-


 

Live Flight TrackerFlight Track Log ✈ KLM1609 ✈ 30-Jan-2014 ✈ EHAM / AMS - LIRF / FCO

Flight Track Log - Related Links

Times and Time Zones

All times are in EST time to prevent confusion due to time zone crossing. See the KLM1609 flight status page for this flight to view local times or setup timezone preferences in your user account.

Time Position Orientation Groundspeed Altitude Reporting Facility
EST Latitude Longitude Course Direction KTS MPH feet Rate Location/Type
03:23PM 52.3656 4.7656 27° Northeast 172 198 3,400  Level FlightAware ADS-B (EHRD / RTM)
03:24PM 52.4238 4.8737 49° Northeast 257 296 6,600 2,400 Climbing FlightAware ADS-B (EHRD / RTM)
03:25PM 52.4242 4.9108 89° East 260 299 8,000 3,840 Climbing FlightAware ADS-B (EHRD / RTM)
03:25PM 52.4242 4.9529 90° East 271 312 9,100 3,540 Climbing FlightAware ADS-B (EHRD / RTM)
03:25PM 52.4179 4.9889 106° East 278 320 10,200 3,240 Climbing FlightAware ADS-B (EHRD / RTM)
03:25PM 52.4088 5.0068 130° Southeast 278 320 10,800 2,040 Climbing FlightAware ADS-B (EHAM / AMS)
03:26PM 52.3938 5.0252 143° Southeast 295 339 11,100 1,380 Climbing FlightAware ADS-B (EHRD / RTM)
03:26PM 52.3678 5.0538 146° Southeast 278 320 11,600 1,200 Climbing FlightAware ADS-B (EHAM / AMS)
03:26PM 52.3641 5.0580 145° Southeast 332 382 11,600 3,180 Level FlightAware ADS-B (KAUN)
03:27PM 52.2978 5.1548 138° Southeast 365 420 14,600 2,880 Climbing FlightAware ADS-B (EHRD / RTM)
03:28PM 52.2586 5.2209 134° Southeast 373 429 16,200 4,260 Climbing FlightAware ADS-B (EDLW / DTM)
03:28PM 52.2421 5.2494 133° Southeast 383 441 18,400 3,420 Climbing FlightAware ADS-B (EDLW / DTM)
03:28PM 52.1943 5.3300 134° Southeast 385 443 18,800 1,500 Climbing FlightAware ADS-B (EHRD / RTM)
03:29PM 52.1563 5.3931 134° Southeast 393 452 20,200 1,860 Climbing FlightAware ADS-B (EHRD / RTM)
03:30PM 52.1073 5.4741 135° Southeast 400 460 21,000 1,560 Climbing FlightAware ADS-B (KAUN)
03:30PM 52.0466 5.5775 134° Southeast 402 463 22,300 1,440 Climbing FlightAware ADS-B (EDLW / DTM)
03:31PM 51.9911 5.6695 134° Southeast 411 473 23,200 1,140 Climbing FlightAware ADS-B (EDLW / DTM)
03:32PM 51.9362 5.7605 134° Southeast 419 482 23,900 1,320 Climbing FlightAware ADS-B (EHRD / RTM)
03:32PM 51.8893 5.8373 135° Southeast 417 480 24,900 1,800 Climbing FlightAware ADS-B (KAUN)
03:33PM 51.8329 5.9304 134° Southeast 425 489 26,200 1,860 Climbing FlightAware ADS-B (KAUN)
03:33PM 51.8155 5.9581 136° Southeast 410 472 26,700 1,620 Climbing FlightAware ADS-B (EDKL)
03:34PM 51.7623 6.0460 134° Southeast 438 504 27,700 2,100 Climbing FlightAware ADS-B (EDLW / DTM)
03:34PM 51.7077 6.1262 138° Southeast 426 490 29,200 1,800 Climbing FlightAware ADS-B (EHRD / RTM)
03:36PM 51.5148 6.3295 147° Southeast 431 496 32,400 1,620 Climbing FlightAware ADS-B (EDKL)
03:37PM 51.4822 6.3645 146° Southeast 426 490 32,900 1,260 Climbing FlightAware ADS-B (KAUN)
03:37PM 51.4404 6.4085 147° Southeast 436 502 33,400 1,140 Climbing FlightAware ADS-B (EDLW / DTM)
03:38PM 51.3923 6.4581 147° Southeast 441 507 34,100 1,020 Climbing FlightAware ADS-B (EDKL)
03:38PM 51.3161 6.5375 147° Southeast 452 520 34,600 1,140 Climbing FlightAware ADS-B (EDKL)
03:39PM 51.2677 6.5884 147° Southeast 452 520 35,400 1,500 Climbing FlightAware ADS-B (EDKL)
03:39PM 51.2040 6.6530 148° Southeast 449 517 36,200 1,500 Climbing FlightAware ADS-B
03:39PM 51.2019 6.6551 148° Southeast 448 516 36,300 1,500 Climbing FlightAware ADS-B (EDKL)
03:40PM 51.1523 6.7070 147° Southeast 447 514 37,000 1,320 Climbing FlightAware ADS-B (EDKL)
03:40PM 51.1380 6.7210 149° Southeast 448 516 37,100 1,020 Climbing FlightAware ADS-B
03:41PM 51.1049 6.7553 147° Southeast 448 516 37,600 960 Climbing FlightAware ADS-B (EDKL)
03:41PM 51.0780 6.7840 146° Southeast 449 517 37,700 960 Climbing FlightAware ADS-B
03:41PM 51.0688 6.7928 149° Southeast 449 517 38,100 960 Climbing FlightAware ADS-B (EDKL)
03:42PM 51.0168 6.8465 147° Southeast 449 517 38,600 840 Climbing FlightAware ADS-B (EDKL)
03:42PM 50.9054 6.9603 147° Southeast 444 511 39,200 660 Climbing FlightAware ADS-B (KAUN)
03:43PM 50.8338 7.0316 148° Southeast 446 513 39,600 660 Climbing FlightAware ADS-B (KAUN)
03:43PM 50.7856 7.0817 147° Southeast 453 521 40,000 720 Climbing FlightAware ADS-B (EDLW / DTM)
03:44PM 50.7405 7.1263 148° Southeast 455 524 40,400 900 Climbing FlightAware ADS-B (EDKL)
03:44PM 50.7180 7.1494 147° Southeast 456 525 40,600 540 Climbing FlightAware ADS-B (EDKL)
03:45PM 50.6313 7.2370 147° Southeast 458 527 40,900 240 Climbing FlightAware ADS-B (EDLW / DTM)
03:46PM 50.5619 7.3069 147° Southeast 461 531 41,000 60 Climbing FlightAware ADS-B (EDLW / DTM)
03:46PM 50.4789 7.3897 148° Southeast 463 533 41,000  Level FlightAware ADS-B (EDLW / DTM)
03:47PM 50.4536 7.4146 148° Southeast 456 525 41,000  Level FlightAware ADS-B (KAUN)
03:47PM 50.4098 7.4576 148° Southeast 456 525 41,000  Level FlightAware ADS-B (KAUN)
03:48PM 50.3420 7.5240 148° Southeast 463 533 41,000  Level FlightAware ADS-B (EDLW / DTM)
03:49PM 50.1346 7.7288 148° Southeast 456 525 41,000  Level FlightAware ADS-B
03:50PM 50.0656 7.7967 148° Southeast 456 525 41,000  Level FlightAware ADS-B
03:51PM 49.9939 7.8663 148° Southeast 453 521 41,000  Level FlightAware ADS-B
03:51PM 49.9214 7.9365 148° Southeast 450 518 41,000  Level FlightAware ADS-B
03:52PM 49.8540 8.0012 148° Southeast 450 518 41,000  Level FlightAware ADS-B
03:53PM 49.7846 8.0672 148° Southeast 449 517 41,000  Level FlightAware ADS-B
03:53PM 49.7099 8.1400 148° Southeast 449 517 41,000  Level FlightAware ADS-B
03:56PM 49.4330 8.4024 159° South 451 519 41,000  Level FlightAware ADS-B
03:57PM 49.4405 8.3026 159° South  Level Estimated
03:57PM 49.3272 8.5027 148° Southeast 451 519 41,000  Level FlightAware ADS-B (ETSE)
03:58PM 49.2017 8.6211 148° Southeast 450 518 41,000  Level FlightAware ADS-B (ETSE)
04:02PM 48.8427 8.9533 160° South 441 507 41,000  Level FlightAware ADS-B (ETSI / IGS)
04:02PM 48.7721 9.0169 149° Southeast 440 506 41,000  Level FlightAware ADS-B (ETSI / IGS)
04:03PM 48.7029 9.0808 149° Southeast 439 505 41,000  Level FlightAware ADS-B (ETSI / IGS)
04:05PM 48.5220 9.2456 161° South 436 502 41,000  Level FlightAware ADS-B (EDDM / MUC)
04:05PM 48.4534 9.3083 149° Southeast 438 504 41,000  Level FlightAware ADS-B (ETSI / IGS)
04:06PM 48.4653 9.2972 328° Northwest 440 506 41,000  Level FlightAware ADS-B (ETSE)
04:07PM 48.3161 9.4309 149° Southeast 442 509 41,000  Level FlightAware ADS-B (ETSI / IGS)
04:07PM 48.2586 9.4826 149° Southeast 441 507 41,000  Level FlightAware ADS-B (EDDM / MUC)
04:08PM 48.1960 9.5389 149° Southeast 442 509 41,000  Level FlightAware ADS-B (EDDM / MUC)
04:08PM 48.1269 9.5998 150° Southeast 441 507 41,000  Level FlightAware ADS-B (EDDM / MUC)
04:09PM 48.0743 9.6466 149° Southeast 442 509 41,000  Level FlightAware ADS-B (EDDM / MUC)
04:10PM 48.0226 9.6933 149° Southeast 442 509 41,000  Level FlightAware ADS-B (EDDM / MUC)
04:10PM 47.9586 9.7492 150° Southeast 443 510 41,000  Level FlightAware ADS-B (EDDM / MUC)
04:11PM 47.9001 9.8004 150° Southeast 443 510 41,000  Level FlightAware ADS-B (ETSE)
04:11PM 47.8403 9.8532 149° Southeast 443 510 41,000  Level FlightAware ADS-B (EDDM / MUC)
04:12PM 47.7910 9.8966 149° Southeast 444 511 41,000  Level FlightAware ADS-B (ETSE)
04:12PM 47.7168 9.9614 150° Southeast 441 507 41,000  Level FlightAware ADS-B (ETSE)
04:13PM 47.6586 10.0118 150° Southeast 441 507 41,000  Level FlightAware ADS-B (EDDM / MUC)
04:14PM 47.5855 10.0743 150° Southeast 441 507 41,000  Level FlightAware ADS-B (ETSE)
04:14PM 47.5283 10.1245 149° Southeast 440 506 41,000  Level FlightAware ADS-B (ETSE)
04:15PM 47.4563 10.1865 150° Southeast 439 505 41,000  Level FlightAware ADS-B (ETSE)
04:16PM 47.3769 10.2559 149° Southeast 438 504 41,000  Level FlightAware ADS-B (ETSE)
04:16PM 47.3086 10.3145 150° Southeast 437 503 41,000  Level FlightAware ADS-B (ETSI / IGS)
04:17PM 47.2372 10.3744 150° Southeast 438 504 41,000  Level FlightAware ADS-B (ETSI / IGS)
04:17PM 47.1895 10.4161 149° Southeast 436 502 41,000  Level FlightAware ADS-B (ETSE)
04:18PM 47.1201 10.4737 151° Southeast 435 501 41,000  Level FlightAware ADS-B (ETSE)
04:18PM 47.0728 10.5144 150° Southeast 431 496 41,000  Level FlightAware ADS-B (ETSI / IGS)
04:19PM 47.0232 10.5438 158° South 426 490 41,000  Level FlightAware ADS-B (ETSE)
04:19PM 47.0075 10.5507 163° South 424 488 41,000  Level FlightAware ADS-B (ETSI / IGS)
04:20PM 46.9303 10.5826 164° South 423 487 41,000  Level FlightAware ADS-B (ETSE)
04:20PM 46.8500 10.6074 168° South 422 486 41,000  Level FlightAware ADS-B (ETSE)
04:21PM 46.7725 10.6312 168° South 420 483 41,000  Level FlightAware ADS-B (ETSE)
04:22PM 46.6927 10.6555 168° South 418 481 41,000  Level FlightAware ADS-B (ETSE)
04:23PM 46.6110 10.6806 168° South 416 479 41,000  Level FlightAware ADS-B (ETSE)
04:23PM 46.5306 10.7052 168° South 420 483 41,000  Level FlightAware ADS-B (ETSE)
04:24PM 46.4621 10.7260 168° South 421 484 41,000  Level FlightAware ADS-B (ETSE)
04:25PM 46.3916 10.7472 168° South 424 488 41,000  Level FlightAware ADS-B (ETSE)
04:25PM 46.3151 10.7702 168° South 436 502 41,000  Level FlightAware ADS-B (ETSE)
04:26PM 46.2502 10.7901 168° South 437 503 41,000  Level FlightAware ADS-B (ETSE)
04:26PM 46.1704 10.8141 168° South 439 505 41,000  Level FlightAware ADS-B (ETSE)
04:27PM 46.0853 10.8397 168° South 441 507 41,000  Level FlightAware ADS-B (ETSE)
04:28PM 45.9963 10.8660 168° South 443 510 41,000  Level FlightAware ADS-B (ETSE)
04:28PM 45.9208 10.8889 168° South 443 510 41,000  Level FlightAware ADS-B (ETSE)
04:29PM 45.8279 10.9164 168° South 442 509 41,000  Level FlightAware ADS-B (ETSE)
04:30PM 45.7867 10.9287 168° South 440 506 41,000  Level FlightAware ADS-B (LIPT / VIC)
04:30PM 45.7147 10.9499 168° South 440 506 41,000  Level FlightAware ADS-B (ETSE)
04:31PM 45.6207 10.9774 168° South 440 506 41,000  Level FlightAware ADS-B (ETSE)
04:32PM 45.5377 11.0019 168° South 437 503 41,000  Level FlightAware ADS-B (ETSE)
04:33PM 45.4169 11.0374 168° South 425 489 41,000  Level FlightAware ADS-B (LIPT / VIC)
04:33PM 45.3849 11.0465 169° South 425 489 41,000  Level FlightAware ADS-B (LIPT / VIC)
04:35PM 45.1859 11.1030 169° South 423 487 41,000  Level FlightAware ADS-B (LIPT / VIC)
04:35PM 45.1137 11.1216 170° South 422 486 41,000  Level FlightAware ADS-B (LIPT / VIC)
04:36PM 45.0865 11.1293 169° South 421 484 41,000  Level FlightAware ADS-B (LIPT / VIC)
04:37PM 44.9664 11.1608 169° South 421 484 41,000 -540 Level FlightAware ADS-B (LIPT / VIC)
04:37PM 44.8768 11.1848 169° South 424 488 40,300 -1,020 Descending FlightAware ADS-B (LIPT / VIC)
04:41PM 44.4699 11.2917 166° South 399 459 36,600 -1,080 Descending FlightAware ADS-B (LIPT / VIC)
04:42PM 44.3994 11.3094 170° South 398 458 35,900 -1,080 Descending FlightAware ADS-B (LIPT / VIC)
04:45PM 44.0535 11.3985 165° South 397 457 32,400 -1,140 Descending FlightAware ADS-B (LIPT / VIC)
04:46PM 43.9618 11.4221 170° South 402 463 31,300 -1,440 Descending FlightAware ADS-B (LIPT / VIC)
04:48PM 43.8080 11.4832 164° South  Level Estimated
04:49PM 43.7175 11.5190 164° South  Level Estimated
04:50PM 43.6271 11.5547 164° South  Level Estimated
04:51PM 43.5366 11.5902 164° South  Level Estimated
04:52PM 43.4461 11.6257 164° South  Level Estimated
04:53PM 43.3556 11.6611 164° South  Level Estimated
04:54PM 43.2650 11.6964 164° South  Level Estimated
04:55PM 43.1745 11.7315 164° South  Level Estimated
04:56PM 43.0840 11.7666 164° South  Level Estimated
04:57PM 42.9934 11.8015 164° South  Level Estimated
04:58PM 42.9028 11.8364 164° South  Level Estimated
04:59PM 42.8122 11.8711 164° South  Level Estimated
05:00PM 42.7217 11.9058 164° South  Level Estimated
05:01PM 42.6311 11.9403 164° South  Level Estimated
05:02PM 42.5405 11.9748 164° South  Level Estimated
05:03PM 42.4498 12.0091 164° South  Level Estimated
05:04PM 42.3592 12.0434 164° South  Level Estimated
05:05PM 42.2686 12.0775 164° South  Level Estimated
05:06PM 42.1779 12.1116 164° South  Level Estimated
05:07PM 42.0872 12.1455 164° South  Level Estimated
05:08PM 41.9966 12.1794 164° South  Level Estimated
05:09PM 41.9059 12.2132 165° South  Level Estimated
05:10PM 41.8152 12.2468 165° South  Level Estimated
05:11PM 41.8045 12.2508 165° South  Level Estimated
05:12PM 41.8045 12.2508 336° Northwest  Level Estimated
05:13PM 41.8045 12.2508 336° Northwest  Level Estimated
05:14PM 41.8045 12.2508 336° Northwest  Level Estimated
05:15PM 41.8045 12.2508 336° Northwest  Level Estimated
05:16PM 41.8045 12.2508 336° Northwest  Level Estimated
05:17PM 41.8045 12.2508 336° Northwest  Level Estimated
05:18PM 41.8045 12.2508 336° Northwest  Level Estimated
05:19PM 41.8045 12.2508 336° Northwest  Level Estimated
05:20PM 41.8045 12.2508 336° Northwest  Level Estimated
05:21PM 41.8045 12.2508 336° Northwest  Level Estimated
05:22PM 41.8045 12.2508 336° Northwest  Level Estimated
05:23PM 41.8045 12.2508 336° Northwest  Level Estimated
05:24PM 41.8045 12.2508 336° Northwest  Level Estimated
05:25PM 41.8045 12.2508 336° Northwest  Level Estimated